Time;durP1;ratioP1;P1;durP2;ratioP2;P2;SDS_P1;SDS_P2;PMS_P1;PMS_P2;Temp;Humidity;BMP_temperature;BMP_pressure;BME280_temperature;BME280_humidity;BME280_pressure;Samples;Min_cycle;Max_cycle;Signal;HPM_P1;HPM_P2
2023/05/01 07:13:03;;;;;;;;;41.50;39.00;;;;;;;;6371421;22;29540;-90
2023/05/01 07:15:28;;;;;;;;;49.50;44.25;;;;;;;;6367300;22;28369;-90
2023/05/01 07:17:55;;;;;;;;;44.75;38.75;;;;;;;;6393545;22;28803;-90
2023/05/01 07:20:20;;;;;;;;;52.50;40.00;;;;;;;;6392901;22;29199;-90
2023/05/01 07:22:45;;;;;;;;;45.25;40.50;;;;;;;;6396999;22;28383;-90
2023/05/01 07:25:10;;;;;;;;;38.00;36.00;;;;;;;;6364563;22;28741;-91
2023/05/01 07:33:59;;;;;;;;;40.75;39.25;;;;;;;;6313673;22;28695;-89
2023/05/01 07:36:24;;;;;;;;;48.75;43.25;;;;;;;;6365493;22;28309;-89
2023/05/01 07:38:49;;;;;;;;;45.00;41.50;;;;;;;;6397250;22;28248;-89
2023/05/01 07:41:17;;;;;;;;;44.50;40.00;;;;;;;;6397619;22;28281;-89
2023/05/01 07:43:42;;;;;;;;;44.00;37.50;;;;;;;;6397566;22;28375;-89
2023/05/01 07:46:08;;;;;;;;;40.00;38.25;;;;;;;;6393176;22;28347;-88
2023/05/01 07:48:33;;;;;;;;;46.00;40.75;;;;;;;;6385313;22;28418;-88
2023/05/01 07:51:02;;;;;;;;;39.50;38.25;;;;;;;;6391513;22;28725;-88
2023/05/01 07:53:27;;;;;;;;;31.75;31.75;;;;;;;;6393870;22;28360;-87
2023/05/01 07:55:53;;;;;;;;;35.75;32.75;;;;;;;;6363394;22;28449;-87
2023/05/01 07:58:18;;;;;;;;;35.25;33.25;;;;;;;;6363722;22;28875;-87
2023/05/01 08:00:46;;;;;;;;;42.25;38.50;;;;;;;;6392619;22;28433;-87
2023/05/01 08:03:11;;;;;;;;;43.25;38.50;;;;;;;;6393910;22;28514;-87
2023/05/01 08:05:40;;;;;;;;;35.50;34.75;;;;;;;;6391760;22;28454;-87
2023/05/01 08:08:05;;;;;;;;;41.50;37.00;;;;;;;;6392258;22;28332;-88
2023/05/01 11:38:00;;;;;;;;;9.33;9.33;;;;;;;;6369420;22;28133;-81
2023/05/01 11:40:33;;;;;;;;;22.00;21.00;;;;;;;;6393994;22;28208;-92
2023/05/01 11:43:05;;;;;;;;;20.67;19.67;;;;;;;;6395842;22;28235;-83
2023/05/01 11:45:31;;;;;;;;;15.67;15.67;;;;;;;;6395188;22;28429;-80
2023/05/01 11:47:57;;;;;;;;;7.67;7.67;;;;;;;;6393788;22;28328;-82
2023/05/01 11:50:30;;;;;;;;;12.33;12.33;;;;;;;;6394379;22;28279;-81
2023/05/01 11:52:55;;;;;;;;;10.67;10.67;;;;;;;;6395381;22;28398;-82
2023/05/01 11:55:29;;;;;;;;;8.00;8.00;;;;;;;;6395282;22;28369;-83
2023/05/01 11:57:54;;;;;;;;;9.33;9.33;;;;;;;;6395407;22;28303;-83
2023/05/01 12:00:28;;;;;;;;;9.67;9.67;;;;;;;;6395416;22;28380;-83
2023/05/01 12:02:59;;;;;;;;;10.33;10.33;;;;;;;;6395723;22;28387;-83
2023/05/01 12:05:25;;;;;;;;;9.00;9.00;;;;;;;;6395390;22;28361;-84
2023/05/01 12:07:50;;;;;;;;;8.67;8.67;;;;;;;;6394959;22;28303;-86
2023/05/01 12:10:16;;;;;;;;;7.00;7.00;;;;;;;;6391029;22;28353;-81
2023/05/01 12:12:42;;;;;;;;;9.33;9.33;;;;;;;;6392329;22;28445;-84
2023/05/01 12:15:07;;;;;;;;;9.33;9.33;;;;;;;;6365295;22;29609;-85
2023/05/01 12:17:33;;;;;;;;;9.33;9.33;;;;;;;;6364506;22;28464;-88
2023/05/01 13:17:40;;;;;;;;;;;;;;;;;;;;;
2023/05/01 16:50:25;;;;;;;;;12.00;12.00;;;;;;;;6312239;22;27972;-89
